sensor_id;sensor_type;location;lat;lon;timestamp;P1;durP1;ratioP1;P2;durP2;ratioP2
72864;SDS011;61000;48.120;11.548;2022-08-19T00:00:50;5.50;;;4.88;;
72864;SDS011;61000;48.120;11.548;2022-08-19T00:03:16;6.28;;;5.10;;
72864;SDS011;61000;48.120;11.548;2022-08-19T00:05:44;5.55;;;5.05;;
72864;SDS011;61000;48.120;11.548;2022-08-19T00:08:11;5.18;;;4.60;;
72864;SDS011;61000;48.120;11.548;2022-08-19T00:10:37;6.82;;;5.85;;
72864;SDS011;61000;48.120;11.548;2022-08-19T00:13:04;5.95;;;5.35;;
72864;SDS011;61000;48.120;11.548;2022-08-19T00:15:31;8.32;;;5.28;;
72864;SDS011;61000;48.120;11.548;2022-08-19T00:18:00;6.20;;;5.53;;
72864;SDS011;61000;48.120;11.548;2022-08-19T00:20:27;7.07;;;5.75;;
72864;SDS011;61000;48.120;11.548;2022-08-19T00:22:54;6.65;;;5.95;;
72864;SDS011;61000;48.120;11.548;2022-08-19T00:25:21;8.18;;;5.90;;
72864;SDS011;61000;48.120;11.548;2022-08-19T00:27:48;7.82;;;6.45;;
72864;SDS011;61000;48.120;11.548;2022-08-19T00:30:16;6.90;;;6.07;;
72864;SDS011;61000;48.120;11.548;2022-08-19T00:32:43;9.80;;;6.40;;
72864;SDS011;61000;48.120;11.548;2022-08-19T00:35:11;7.03;;;6.20;;
72864;SDS011;61000;48.120;11.548;2022-08-19T00:37:38;10.15;;;6.85;;
72864;SDS011;61000;48.120;11.548;2022-08-19T00:40:09;7.82;;;5.80;;
72864;SDS011;61000;48.120;11.548;2022-08-19T00:42:37;7.78;;;6.47;;
72864;SDS011;61000;48.120;11.548;2022-08-19T00:45:05;10.13;;;6.93;;
72864;SDS011;61000;48.120;11.548;2022-08-19T00:47:36;8.13;;;6.93;;
72864;SDS011;61000;48.120;11.548;2022-08-19T00:50:04;7.68;;;6.28;;
72864;SDS011;61000;48.120;11.548;2022-08-19T00:52:37;7.03;;;5.90;;
72864;SDS011;61000;48.120;11.548;2022-08-19T00:55:10;8.40;;;7.25;;
72864;SDS011;61000;48.120;11.548;2022-08-19T00:57:40;7.72;;;6.72;;
72864;SDS011;61000;48.120;11.548;2022-08-19T01:00:13;10.13;;;7.47;;
72864;SDS011;61000;48.120;11.548;2022-08-19T01:02:44;8.38;;;6.85;;
72864;SDS011;61000;48.120;11.548;2022-08-19T01:05:14;7.80;;;7.00;;
72864;SDS011;61000;48.120;11.548;2022-08-19T01:07:45;10.65;;;7.95;;
72864;SDS011;61000;48.120;11.548;2022-08-19T01:10:14;10.82;;;8.27;;
72864;SDS011;61000;48.120;11.548;2022-08-19T01:12:44;9.18;;;7.53;;
72864;SDS011;61000;48.120;11.548;2022-08-19T01:15:14;9.85;;;8.05;;
72864;SDS011;61000;48.120;11.548;2022-08-19T01:17:44;10.40;;;8.32;;
72864;SDS011;61000;48.120;11.548;2022-08-19T01:20:13;10.40;;;8.48;;
72864;SDS011;61000;48.120;11.548;2022-08-19T01:22:46;9.85;;;8.15;;
72864;SDS011;61000;48.120;11.548;2022-08-19T01:25:16;12.32;;;8.68;;
72864;SDS011;61000;48.120;11.548;2022-08-19T01:27:45;9.45;;;8.43;;
72864;SDS011;61000;48.120;11.548;2022-08-19T01:30:15;11.93;;;8.38;;
72864;SDS011;61000;48.120;11.548;2022-08-19T01:32:45;11.77;;;8.57;;
72864;SDS011;61000;48.120;11.548;2022-08-19T01:35:12;9.90;;;8.57;;
72864;SDS011;61000;48.120;11.548;2022-08-19T01:37:46;11.88;;;8.93;;
72864;SDS011;61000;48.120;11.548;2022-08-19T01:40:15;10.98;;;8.35;;
72864;SDS011;61000;48.120;11.548;2022-08-19T01:42:44;9.05;;;7.68;;
72864;SDS011;61000;48.120;11.548;2022-08-19T01:45:11;10.35;;;8.30;;
72864;SDS011;61000;48.120;11.548;2022-08-19T01:47:38;10.52;;;7.90;;
72864;SDS011;61000;48.120;11.548;2022-08-19T01:50:06;9.75;;;8.43;;
72864;SDS011;61000;48.120;11.548;2022-08-19T01:52:35;8.88;;;7.88;;
72864;SDS011;61000;48.120;11.548;2022-08-19T01:55:04;9.52;;;7.90;;
72864;SDS011;61000;48.120;11.548;2022-08-19T01:57:33;8.35;;;7.55;;
72864;SDS011;61000;48.120;11.548;2022-08-19T02:00:03;10.70;;;8.00;;
72864;SDS011;61000;48.120;11.548;2022-08-19T02:02:36;8.95;;;7.85;;
72864;SDS011;61000;48.120;11.548;2022-08-19T02:05:04;8.90;;;7.22;;
72864;SDS011;61000;48.120;11.548;2022-08-19T02:07:33;8.82;;;7.43;;
72864;SDS011;61000;48.120;11.548;2022-08-19T02:10:01;8.65;;;7.55;;
72864;SDS011;61000;48.120;11.548;2022-08-19T02:12:30;9.63;;;8.00;;
72864;SDS011;61000;48.120;11.548;2022-08-19T02:14:58;9.38;;;7.13;;
72864;SDS011;61000;48.120;11.548;2022-08-19T02:17:26;9.43;;;8.20;;
72864;SDS011;61000;48.120;11.548;2022-08-19T02:19:54;9.00;;;7.13;;
72864;SDS011;61000;48.120;11.548;2022-08-19T02:22:21;8.88;;;6.97;;
72864;SDS011;61000;48.120;11.548;2022-08-19T02:24:50;8.30;;;6.95;;
72864;SDS011;61000;48.120;11.548;2022-08-19T02:27:19;8.05;;;6.90;;
72864;SDS011;61000;48.120;11.548;2022-08-19T02:29:47;8.55;;;7.63;;
72864;SDS011;61000;48.120;11.548;2022-08-19T02:32:14;9.85;;;6.65;;
72864;SDS011;61000;48.120;11.548;2022-08-19T02:34:41;8.95;;;7.30;;
72864;SDS011;61000;48.120;11.548;2022-08-19T02:37:08;7.55;;;6.78;;
72864;SDS011;61000;48.120;11.548;2022-08-19T02:39:55;9.90;;;6.82;;
72864;SDS011;61000;48.120;11.548;2022-08-19T02:42:23;8.30;;;6.43;;
72864;SDS011;61000;48.120;11.548;2022-08-19T02:44:50;7.32;;;6.03;;
72864;SDS011;61000;48.120;11.548;2022-08-19T02:47:18;6.93;;;6.10;;
72864;SDS011;61000;48.120;11.548;2022-08-19T02:49:45;7.07;;;6.28;;
72864;SDS011;61000;48.120;11.548;2022-08-19T02:52:15;8.30;;;6.60;;
72864;SDS011;61000;48.120;11.548;2022-08-19T02:54:42;7.50;;;6.50;;
72864;SDS011;61000;48.120;11.548;2022-08-19T02:57:09;7.10;;;6.13;;
72864;SDS011;61000;48.120;11.548;2022-08-19T02:59:37;7.60;;;6.55;;
72864;SDS011;61000;48.120;11.548;2022-08-19T03:02:05;7.72;;;6.45;;
72864;SDS011;61000;48.120;11.548;2022-08-19T03:04:31;7.78;;;6.30;;
72864;SDS011;61000;48.120;11.548;2022-08-19T03:06:58;7.72;;;6.45;;
72864;SDS011;61000;48.120;11.548;2022-08-19T03:09:25;9.15;;;6.60;;
72864;SDS011;61000;48.120;11.548;2022-08-19T03:11:52;6.97;;;6.28;;
72864;SDS011;61000;48.120;11.548;2022-08-19T03:14:19;8.35;;;6.82;;
72864;SDS011;61000;48.120;11.548;2022-08-19T03:16:48;9.50;;;6.55;;
72864;SDS011;61000;48.120;11.548;2022-08-19T03:19:17;7.72;;;6.25;;
72864;SDS011;61000;48.120;11.548;2022-08-19T03:21:46;7.03;;;6.30;;
72864;SDS011;61000;48.120;11.548;2022-08-19T03:24:13;8.55;;;6.47;;
72864;SDS011;61000;48.120;11.548;2022-08-19T03:26:41;9.18;;;5.68;;
72864;SDS011;61000;48.120;11.548;2022-08-19T03:29:09;7.82;;;5.65;;
72864;SDS011;61000;48.120;11.548;2022-08-19T03:31:37;8.68;;;7.70;;
72864;SDS011;61000;48.120;11.548;2022-08-19T03:34:08;7.82;;;6.47;;
72864;SDS011;61000;48.120;11.548;2022-08-19T03:36:36;11.73;;;7.03;;
72864;SDS011;61000;48.120;11.548;2022-08-19T03:39:04;6.43;;;5.70;;
72864;SDS011;61000;48.120;11.548;2022-08-19T03:41:36;6.75;;;6.03;;
72864;SDS011;61000;48.120;11.548;2022-08-19T03:44:04;7.95;;;6.07;;
72864;SDS011;61000;48.120;11.548;2022-08-19T03:46:32;7.50;;;6.15;;
72864;SDS011;61000;48.120;11.548;2022-08-19T03:49:00;7.82;;;6.53;;
72864;SDS011;61000;48.120;11.548;2022-08-19T03:51:34;8.30;;;6.00;;
72864;SDS011;61000;48.120;11.548;2022-08-19T03:54:04;8.68;;;7.18;;
72864;SDS011;61000;48.120;11.548;2022-08-19T03:56:33;7.80;;;6.07;;
72864;SDS011;61000;48.120;11.548;2022-08-19T03:59:02;6.50;;;5.50;;
72864;SDS011;61000;48.120;11.548;2022-08-19T04:01:29;8.00;;;6.07;;
72864;SDS011;61000;48.120;11.548;2022-08-19T04:03:57;6.03;;;5.43;;
72864;SDS011;61000;48.120;11.548;2022-08-19T04:06:26;6.28;;;5.65;;
72864;SDS011;61000;48.120;11.548;2022-08-19T04:08:57;8.02;;;6.47;;
72864;SDS011;61000;48.120;11.548;2022-08-19T04:11:27;7.22;;;6.50;;
72864;SDS011;61000;48.120;11.548;2022-08-19T04:13:55;7.13;;;5.97;;
72864;SDS011;61000;48.120;11.548;2022-08-19T04:16:23;7.07;;;6.35;;
72864;SDS011;61000;48.120;11.548;2022-08-19T04:18:54;8.70;;;6.57;;
72864;SDS011;61000;48.120;11.548;2022-08-19T04:21:21;7.32;;;5.88;;
72864;SDS011;61000;48.120;11.548;2022-08-19T04:23:49;11.93;;;7.68;;
72864;SDS011;61000;48.120;11.548;2022-08-19T04:26:19;10.52;;;7.22;;
72864;SDS011;61000;48.120;11.548;2022-08-19T04:28:48;10.27;;;7.65;;
72864;SDS011;61000;48.120;11.548;2022-08-19T04:31:17;9.60;;;7.60;;
72864;SDS011;61000;48.120;11.548;2022-08-19T04:33:45;9.50;;;8.00;;
72864;SDS011;61000;48.120;11.548;2022-08-19T04:36:15;10.27;;;7.82;;
72864;SDS011;61000;48.120;11.548;2022-08-19T04:38:45;10.82;;;7.35;;
72864;SDS011;61000;48.120;11.548;2022-08-19T04:41:12;10.93;;;8.05;;
72864;SDS011;61000;48.120;11.548;2022-08-19T04:43:58;12.75;;;8.73;;
72864;SDS011;61000;48.120;11.548;2022-08-19T04:46:25;13.00;;;8.02;;
72864;SDS011;61000;48.120;11.548;2022-08-19T04:48:54;12.00;;;8.40;;
72864;SDS011;61000;48.120;11.548;2022-08-19T04:51:22;11.55;;;8.07;;
72864;SDS011;61000;48.120;11.548;2022-08-19T04:53:49;11.40;;;7.45;;
72864;SDS011;61000;48.120;11.548;2022-08-19T04:56:17;9.65;;;7.18;;
72864;SDS011;61000;48.120;11.548;2022-08-19T04:58:47;9.20;;;7.13;;
72864;SDS011;61000;48.120;11.548;2022-08-19T05:01:20;9.65;;;7.18;;
72864;SDS011;61000;48.120;11.548;2022-08-19T05:03:48;10.80;;;8.25;;
72864;SDS011;61000;48.120;11.548;2022-08-19T05:06:16;10.02;;;7.28;;
72864;SDS011;61000;48.120;11.548;2022-08-19T05:08:45;10.80;;;8.18;;
72864;SDS011;61000;48.120;11.548;2022-08-19T05:11:13;10.85;;;7.47;;
72864;SDS011;61000;48.120;11.548;2022-08-19T05:13:42;9.10;;;7.32;;
72864;SDS011;61000;48.120;11.548;2022-08-19T05:16:10;9.43;;;7.53;;
72864;SDS011;61000;48.120;11.548;2022-08-19T05:18:39;9.88;;;7.55;;
72864;SDS011;61000;48.120;11.548;2022-08-19T05:21:25;9.07;;;7.25;;
72864;SDS011;61000;48.120;11.548;2022-08-19T05:24:10;10.52;;;6.80;;
72864;SDS011;61000;48.120;11.548;2022-08-19T05:26:40;9.82;;;7.38;;
72864;SDS011;61000;48.120;11.548;2022-08-19T05:29:08;9.15;;;6.95;;
72864;SDS011;61000;48.120;11.548;2022-08-19T05:31:35;9.10;;;7.40;;
72864;SDS011;61000;48.120;11.548;2022-08-19T05:34:05;8.95;;;7.40;;
72864;SDS011;61000;48.120;11.548;2022-08-19T05:36:34;9.23;;;6.80;;
72864;SDS011;61000;48.120;11.548;2022-08-19T05:39:04;8.77;;;7.28;;
72864;SDS011;61000;48.120;11.548;2022-08-19T05:41:31;8.32;;;7.22;;
72864;SDS011;61000;48.120;11.548;2022-08-19T05:44:00;9.32;;;7.13;;
72864;SDS011;61000;48.120;11.548;2022-08-19T05:46:31;12.38;;;7.45;;
72864;SDS011;61000;48.120;11.548;2022-08-19T05:48:58;10.38;;;7.20;;
72864;SDS011;61000;48.120;11.548;2022-08-19T05:51:26;10.52;;;7.70;;
72864;SDS011;61000;48.120;11.548;2022-08-19T05:53:53;10.10;;;8.43;;
72864;SDS011;61000;48.120;11.548;2022-08-19T05:56:20;14.02;;;9.18;;
72864;SDS011;61000;48.120;11.548;2022-08-19T05:58:47;10.60;;;7.80;;
72864;SDS011;61000;48.120;11.548;2022-08-19T06:01:15;12.25;;;8.93;;
72864;SDS011;61000;48.120;11.548;2022-08-19T06:03:44;11.70;;;8.70;;
72864;SDS011;61000;48.120;11.548;2022-08-19T06:06:13;11.68;;;9.07;;
72864;SDS011;61000;48.120;11.548;2022-08-19T06:08:43;12.73;;;9.63;;
72864;SDS011;61000;48.120;11.548;2022-08-19T06:11:17;13.13;;;10.40;;
72864;SDS011;61000;48.120;11.548;2022-08-19T06:13:46;14.40;;;10.40;;
72864;SDS011;61000;48.120;11.548;2022-08-19T06:16:16;15.45;;;10.25;;
72864;SDS011;61000;48.120;11.548;2022-08-19T06:18:48;12.40;;;9.40;;
72864;SDS011;61000;48.120;11.548;2022-08-19T06:21:18;13.38;;;9.77;;
72864;SDS011;61000;48.120;11.548;2022-08-19T06:23:47;12.52;;;9.82;;
72864;SDS011;61000;48.120;11.548;2022-08-19T06:26:15;14.57;;;10.32;;
72864;SDS011;61000;48.120;11.548;2022-08-19T06:28:42;16.45;;;11.48;;
72864;SDS011;61000;48.120;11.548;2022-08-19T06:31:12;12.63;;;11.02;;
72864;SDS011;61000;48.120;11.548;2022-08-19T06:33:43;16.50;;;10.63;;
72864;SDS011;61000;48.120;11.548;2022-08-19T06:36:16;14.43;;;11.63;;
72864;SDS011;61000;48.120;11.548;2022-08-19T06:38:46;16.70;;;12.18;;
72864;SDS011;61000;48.120;11.548;2022-08-19T06:41:13;17.52;;;11.63;;
72864;SDS011;61000;48.120;11.548;2022-08-19T06:43:40;16.95;;;11.82;;
72864;SDS011;61000;48.120;11.548;2022-08-19T06:46:11;16.85;;;12.32;;
72864;SDS011;61000;48.120;11.548;2022-08-19T06:48:39;16.13;;;11.73;;
72864;SDS011;61000;48.120;11.548;2022-08-19T06:51:07;16.58;;;12.05;;
72864;SDS011;61000;48.120;11.548;2022-08-19T06:53:34;20.90;;;13.18;;
72864;SDS011;61000;48.120;11.548;2022-08-19T06:56:02;17.73;;;11.93;;
72864;SDS011;61000;48.120;11.548;2022-08-19T06:58:29;16.20;;;11.75;;
72864;SDS011;61000;48.120;11.548;2022-08-19T07:00:58;19.80;;;12.20;;
72864;SDS011;61000;48.120;11.548;2022-08-19T07:03:28;15.57;;;12.00;;
72864;SDS011;61000;48.120;11.548;2022-08-19T07:05:57;14.32;;;10.75;;
72864;SDS011;61000;48.120;11.548;2022-08-19T07:08:28;15.98;;;11.55;;
72864;SDS011;61000;48.120;11.548;2022-08-19T07:10:55;16.45;;;11.07;;
72864;SDS011;61000;48.120;11.548;2022-08-19T07:13:23;17.58;;;12.23;;
72864;SDS011;61000;48.120;11.548;2022-08-19T07:15:50;16.35;;;11.05;;
72864;SDS011;61000;48.120;11.548;2022-08-19T07:18:17;15.02;;;11.48;;
72864;SDS011;61000;48.120;11.548;2022-08-19T07:20:45;17.13;;;12.65;;
72864;SDS011;61000;48.120;11.548;2022-08-19T07:23:12;17.17;;;13.07;;
72864;SDS011;61000;48.120;11.548;2022-08-19T07:25:39;17.40;;;12.30;;
72864;SDS011;61000;48.120;11.548;2022-08-19T07:28:06;17.02;;;12.60;;
72864;SDS011;61000;48.120;11.548;2022-08-19T07:30:37;18.27;;;13.50;;
72864;SDS011;61000;48.120;11.548;2022-08-19T07:33:05;16.38;;;12.57;;
72864;SDS011;61000;48.120;11.548;2022-08-19T07:35:32;16.83;;;13.10;;
72864;SDS011;61000;48.120;11.548;2022-08-19T07:38:00;16.90;;;12.65;;
72864;SDS011;61000;48.120;11.548;2022-08-19T07:40:28;18.10;;;13.90;;
72864;SDS011;61000;48.120;11.548;2022-08-19T07:42:56;16.95;;;12.77;;
72864;SDS011;61000;48.120;11.548;2022-08-19T07:45:23;20.75;;;14.60;;
72864;SDS011;61000;48.120;11.548;2022-08-19T07:47:51;19.52;;;13.88;;
72864;SDS011;61000;48.120;11.548;2022-08-19T07:50:19;20.20;;;14.60;;
72864;SDS011;61000;48.120;11.548;2022-08-19T07:52:46;20.85;;;14.63;;
72864;SDS011;61000;48.120;11.548;2022-08-19T07:55:15;22.58;;;13.60;;
72864;SDS011;61000;48.120;11.548;2022-08-19T07:57:43;21.35;;;15.18;;
72864;SDS011;61000;48.120;11.548;2022-08-19T08:00:10;20.73;;;14.75;;
72864;SDS011;61000;48.120;11.548;2022-08-19T08:02:38;19.38;;;14.65;;
72864;SDS011;61000;48.120;11.548;2022-08-19T08:05:09;20.02;;;15.57;;
72864;SDS011;61000;48.120;11.548;2022-08-19T08:07:54;22.05;;;15.02;;
72864;SDS011;61000;48.120;11.548;2022-08-19T08:10:38;19.25;;;15.35;;
72864;SDS011;61000;48.120;11.548;2022-08-19T08:13:05;26.42;;;16.58;;
72864;SDS011;61000;48.120;11.548;2022-08-19T08:15:33;22.40;;;16.88;;
72864;SDS011;61000;48.120;11.548;2022-08-19T08:17:59;25.33;;;16.75;;
72864;SDS011;61000;48.120;11.548;2022-08-19T08:20:28;25.70;;;17.90;;
72864;SDS011;61000;48.120;11.548;2022-08-19T08:22:55;26.92;;;18.33;;
72864;SDS011;61000;48.120;11.548;2022-08-19T08:25:40;23.83;;;17.75;;
72864;SDS011;61000;48.120;11.548;2022-08-19T08:28:06;26.40;;;18.88;;
72864;SDS011;61000;48.120;11.548;2022-08-19T08:30:34;23.40;;;17.45;;
72864;SDS011;61000;48.120;11.548;2022-08-19T08:33:02;24.95;;;18.33;;
72864;SDS011;61000;48.120;11.548;2022-08-19T08:35:31;23.77;;;18.55;;
72864;SDS011;61000;48.120;11.548;2022-08-19T08:37:59;26.63;;;18.75;;
72864;SDS011;61000;48.120;11.548;2022-08-19T08:40:29;26.88;;;19.05;;
72864;SDS011;61000;48.120;11.548;2022-08-19T08:43:01;26.50;;;18.05;;
72864;SDS011;61000;48.120;11.548;2022-08-19T08:45:33;26.42;;;19.27;;
72864;SDS011;61000;48.120;11.548;2022-08-19T08:48:07;27.58;;;18.98;;
72864;SDS011;61000;48.120;11.548;2022-08-19T08:50:49;27.27;;;19.17;;
72864;SDS011;61000;48.120;11.548;2022-08-19T08:53:20;26.60;;;19.00;;
72864;SDS011;61000;48.120;11.548;2022-08-19T08:55:48;29.75;;;20.48;;
72864;SDS011;61000;48.120;11.548;2022-08-19T08:58:16;26.88;;;19.58;;
72864;SDS011;61000;48.120;11.548;2022-08-19T09:00:47;26.05;;;18.88;;
72864;SDS011;61000;48.120;11.548;2022-08-19T09:03:17;24.10;;;17.33;;
72864;SDS011;61000;48.120;11.548;2022-08-19T09:05:48;28.23;;;19.63;;
72864;SDS011;61000;48.120;11.548;2022-08-19T09:08:28;24.33;;;17.70;;
72864;SDS011;61000;48.120;11.548;2022-08-19T09:11:03;24.73;;;17.13;;
72864;SDS011;61000;48.120;11.548;2022-08-19T09:13:36;25.92;;;18.42;;
72864;SDS011;61000;48.120;11.548;2022-08-19T09:16:11;27.23;;;18.30;;
72864;SDS011;61000;48.120;11.548;2022-08-19T09:18:41;24.83;;;17.67;;
72864;SDS011;61000;48.120;11.548;2022-08-19T09:21:11;26.05;;;17.17;;
72864;SDS011;61000;48.120;11.548;2022-08-19T09:23:38;26.85;;;18.30;;
72864;SDS011;61000;48.120;11.548;2022-08-19T09:26:09;32.47;;;18.30;;
72864;SDS011;61000;48.120;11.548;2022-08-19T09:28:38;27.10;;;17.67;;
72864;SDS011;61000;48.120;11.548;2022-08-19T09:31:07;23.33;;;16.98;;
72864;SDS011;61000;48.120;11.548;2022-08-19T09:33:34;26.45;;;17.40;;
72864;SDS011;61000;48.120;11.548;2022-08-19T09:36:02;27.17;;;16.95;;
72864;SDS011;61000;48.120;11.548;2022-08-19T09:38:31;24.52;;;17.88;;
72864;SDS011;61000;48.120;11.548;2022-08-19T09:41:01;23.30;;;16.45;;
72864;SDS011;61000;48.120;11.548;2022-08-19T09:43:30;21.70;;;16.33;;
72864;SDS011;61000;48.120;11.548;2022-08-19T09:45:58;26.33;;;17.33;;
72864;SDS011;61000;48.120;11.548;2022-08-19T09:48:25;22.42;;;15.68;;
72864;SDS011;61000;48.120;11.548;2022-08-19T09:50:52;27.50;;;16.75;;
72864;SDS011;61000;48.120;11.548;2022-08-19T09:53:19;24.77;;;17.67;;
72864;SDS011;61000;48.120;11.548;2022-08-19T09:55:49;21.98;;;15.65;;
72864;SDS011;61000;48.120;11.548;2022-08-19T09:58:16;24.85;;;17.33;;
72864;SDS011;61000;48.120;11.548;2022-08-19T10:00:43;26.48;;;17.65;;
72864;SDS011;61000;48.120;11.548;2022-08-19T10:03:10;25.38;;;17.65;;
72864;SDS011;61000;48.120;11.548;2022-08-19T10:05:37;22.02;;;15.65;;
72864;SDS011;61000;48.120;11.548;2022-08-19T10:08:18;28.30;;;18.27;;
72864;SDS011;61000;48.120;11.548;2022-08-19T10:10:46;23.13;;;16.30;;
72864;SDS011;61000;48.120;11.548;2022-08-19T10:13:16;23.65;;;16.35;;
72864;SDS011;61000;48.120;11.548;2022-08-19T10:15:46;25.52;;;15.95;;
72864;SDS011;61000;48.120;11.548;2022-08-19T10:18:16;22.80;;;15.50;;
72864;SDS011;61000;48.120;11.548;2022-08-19T10:20:43;23.30;;;16.05;;
72864;SDS011;61000;48.120;11.548;2022-08-19T10:23:10;19.52;;;14.23;;
72864;SDS011;61000;48.120;11.548;2022-08-19T10:25:38;21.20;;;14.75;;
72864;SDS011;61000;48.120;11.548;2022-08-19T10:28:04;17.67;;;13.77;;
72864;SDS011;61000;48.120;11.548;2022-08-19T10:30:33;19.10;;;14.68;;
72864;SDS011;61000;48.120;11.548;2022-08-19T10:33:02;18.85;;;13.10;;
72864;SDS011;61000;48.120;11.548;2022-08-19T10:35:29;18.35;;;13.65;;
72864;SDS011;61000;48.120;11.548;2022-08-19T10:37:56;18.80;;;13.93;;
72864;SDS011;61000;48.120;11.548;2022-08-19T10:40:26;17.52;;;13.38;;
72864;SDS011;61000;48.120;11.548;2022-08-19T10:42:54;18.52;;;14.23;;
72864;SDS011;61000;48.120;11.548;2022-08-19T10:45:21;18.63;;;14.18;;
72864;SDS011;61000;48.120;11.548;2022-08-19T10:47:52;15.85;;;12.50;;
72864;SDS011;61000;48.120;11.548;2022-08-19T10:50:19;15.95;;;12.40;;
72864;SDS011;61000;48.120;11.548;2022-08-19T10:53:04;16.25;;;11.80;;
72864;SDS011;61000;48.120;11.548;2022-08-19T10:55:33;13.27;;;10.77;;
72864;SDS011;61000;48.120;11.548;2022-08-19T10:58:19;15.48;;;11.35;;
72864;SDS011;61000;48.120;11.548;2022-08-19T11:00:51;13.07;;;10.20;;
72864;SDS011;61000;48.120;11.548;2022-08-19T11:03:21;10.98;;;8.82;;
72864;SDS011;61000;48.120;11.548;2022-08-19T11:05:57;12.32;;;8.95;;
72864;SDS011;61000;48.120;11.548;2022-08-19T11:08:28;13.02;;;9.88;;
72864;SDS011;61000;48.120;11.548;2022-08-19T11:10:58;11.63;;;9.68;;
72864;SDS011;61000;48.120;11.548;2022-08-19T11:13:28;11.35;;;9.60;;
72864;SDS011;61000;48.120;11.548;2022-08-19T11:15:59;12.90;;;9.80;;
72864;SDS011;61000;48.120;11.548;2022-08-19T11:18:28;11.57;;;9.35;;
72864;SDS011;61000;48.120;11.548;2022-08-19T11:21:04;11.48;;;8.82;;
72864;SDS011;61000;48.120;11.548;2022-08-19T11:23:31;10.43;;;9.10;;
72864;SDS011;61000;48.120;11.548;2022-08-19T11:25:58;11.20;;;9.52;;
72864;SDS011;61000;48.120;11.548;2022-08-19T11:28:28;12.13;;;10.05;;
72864;SDS011;61000;48.120;11.548;2022-08-19T11:30:55;14.80;;;11.07;;
72864;SDS011;61000;48.120;11.548;2022-08-19T11:33:22;14.45;;;10.40;;
72864;SDS011;61000;48.120;11.548;2022-08-19T11:35:52;12.07;;;9.95;;
72864;SDS011;61000;48.120;11.548;2022-08-19T11:38:19;12.68;;;9.85;;
72864;SDS011;61000;48.120;11.548;2022-08-19T11:40:55;11.95;;;8.48;;
72864;SDS011;61000;48.120;11.548;2022-08-19T11:43:25;8.95;;;6.85;;
72864;SDS011;61000;48.120;11.548;2022-08-19T11:45:52;6.43;;;5.47;;
72864;SDS011;61000;48.120;11.548;2022-08-19T11:48:19;6.50;;;5.80;;
72864;SDS011;61000;48.120;11.548;2022-08-19T11:50:48;5.50;;;5.00;;
72864;SDS011;61000;48.120;11.548;2022-08-19T11:53:17;6.05;;;5.40;;
72864;SDS011;61000;48.120;11.548;2022-08-19T11:55:45;7.47;;;5.38;;
72864;SDS011;61000;48.120;11.548;2022-08-19T11:58:13;5.85;;;4.97;;
72864;SDS011;61000;48.120;11.548;2022-08-19T12:00:41;6.05;;;4.57;;
72864;SDS011;61000;48.120;11.548;2022-08-19T12:03:10;4.50;;;4.05;;
72864;SDS011;61000;48.120;11.548;2022-08-19T12:05:40;3.70;;;3.35;;
72864;SDS011;61000;48.120;11.548;2022-08-19T12:08:08;3.25;;;2.95;;
72864;SDS011;61000;48.120;11.548;2022-08-19T12:10:38;5.30;;;3.00;;
72864;SDS011;61000;48.120;11.548;2022-08-19T12:13:05;2.03;;;1.85;;
72864;SDS011;61000;48.120;11.548;2022-08-19T12:15:34;2.50;;;2.30;;
72864;SDS011;61000;48.120;11.548;2022-08-19T12:18:03;2.10;;;1.80;;
72864;SDS011;61000;48.120;11.548;2022-08-19T12:20:30;2.13;;;1.92;;
72864;SDS011;61000;48.120;11.548;2022-08-19T12:23:00;2.33;;;1.70;;
72864;SDS011;61000;48.120;11.548;2022-08-19T12:25:27;1.60;;;1.50;;
72864;SDS011;61000;48.120;11.548;2022-08-19T12:27:57;1.73;;;1.63;;
72864;SDS011;61000;48.120;11.548;2022-08-19T12:30:24;1.80;;;1.70;;
72864;SDS011;61000;48.120;11.548;2022-08-19T12:32:51;2.25;;;1.40;;
72864;SDS011;61000;48.120;11.548;2022-08-19T12:35:18;2.03;;;1.75;;
72864;SDS011;61000;48.120;11.548;2022-08-19T12:37:46;1.88;;;1.60;;
72864;SDS011;61000;48.120;11.548;2022-08-19T12:40:14;1.67;;;1.52;;
72864;SDS011;61000;48.120;11.548;2022-08-19T12:42:42;1.63;;;1.52;;
72864;SDS011;61000;48.120;11.548;2022-08-19T12:45:11;1.80;;;1.65;;
72864;SDS011;61000;48.120;11.548;2022-08-19T12:47:39;1.92;;;1.50;;
72864;SDS011;61000;48.120;11.548;2022-08-19T12:50:06;1.42;;;1.33;;
72864;SDS011;61000;48.120;11.548;2022-08-19T12:52:34;1.55;;;1.40;;
72864;SDS011;61000;48.120;11.548;2022-08-19T12:55:03;1.50;;;1.40;;
72864;SDS011;61000;48.120;11.548;2022-08-19T12:57:32;1.60;;;1.50;;
72864;SDS011;61000;48.120;11.548;2022-08-19T13:00:04;1.95;;;1.60;;
72864;SDS011;61000;48.120;11.548;2022-08-19T13:02:37;1.50;;;1.40;;
72864;SDS011;61000;48.120;11.548;2022-08-19T13:05:06;2.28;;;1.52;;
72864;SDS011;61000;48.120;11.548;2022-08-19T13:07:36;2.80;;;1.67;;
72864;SDS011;61000;48.120;11.548;2022-08-19T13:10:06;1.65;;;1.55;;
72864;SDS011;61000;48.120;11.548;2022-08-19T13:12:36;1.77;;;1.67;;
72864;SDS011;61000;48.120;11.548;2022-08-19T13:15:04;1.83;;;1.73;;
72864;SDS011;61000;48.120;11.548;2022-08-19T13:17:38;2.10;;;1.90;;
72864;SDS011;61000;48.120;11.548;2022-08-19T13:20:06;1.60;;;1.50;;
72864;SDS011;61000;48.120;11.548;2022-08-19T13:22:34;1.52;;;1.42;;
72864;SDS011;61000;48.120;11.548;2022-08-19T13:25:01;1.48;;;1.38;;
72864;SDS011;61000;48.120;11.548;2022-08-19T13:27:29;1.58;;;1.48;;
72864;SDS011;61000;48.120;11.548;2022-08-19T13:29:56;1.80;;;1.70;;
72864;SDS011;61000;48.120;11.548;2022-08-19T13:32:42;1.67;;;1.58;;
72864;SDS011;61000;48.120;11.548;2022-08-19T13:35:22;1.65;;;1.45;;
72864;SDS011;61000;48.120;11.548;2022-08-19T13:37:52;2.85;;;1.70;;
72864;SDS011;61000;48.120;11.548;2022-08-19T13:40:19;2.38;;;1.92;;
72864;SDS011;61000;48.120;11.548;2022-08-19T13:42:52;3.13;;;1.80;;
72864;SDS011;61000;48.120;11.548;2022-08-19T13:45:21;1.83;;;1.73;;
72864;SDS011;61000;48.120;11.548;2022-08-19T13:47:54;2.42;;;2.22;;
72864;SDS011;61000;48.120;11.548;2022-08-19T13:50:23;3.50;;;2.75;;
72864;SDS011;61000;48.120;11.548;2022-08-19T13:52:52;3.53;;;2.53;;
72864;SDS011;61000;48.120;11.548;2022-08-19T13:55:20;2.25;;;2.10;;
72864;SDS011;61000;48.120;11.548;2022-08-19T13:57:49;2.90;;;2.60;;
72864;SDS011;61000;48.120;11.548;2022-08-19T14:00:18;2.45;;;2.22;;
72864;SDS011;61000;48.120;11.548;2022-08-19T14:02:51;2.75;;;2.55;;
72864;SDS011;61000;48.120;11.548;2022-08-19T14:05:22;2.78;;;2.33;;
72864;SDS011;61000;48.120;11.548;2022-08-19T14:07:50;5.43;;;2.92;;
72864;SDS011;61000;48.120;11.548;2022-08-19T14:10:17;3.25;;;2.95;;
72864;SDS011;61000;48.120;11.548;2022-08-19T14:12:44;4.78;;;3.10;;
72864;SDS011;61000;48.120;11.548;2022-08-19T14:15:12;3.95;;;3.60;;
72864;SDS011;61000;48.120;11.548;2022-08-19T14:17:43;3.08;;;2.83;;
72864;SDS011;61000;48.120;11.548;2022-08-19T14:20:13;3.40;;;3.10;;
72864;SDS011;61000;48.120;11.548;2022-08-19T14:22:41;3.25;;;2.95;;
72864;SDS011;61000;48.120;11.548;2022-08-19T14:25:10;3.50;;;3.20;;
72864;SDS011;61000;48.120;11.548;2022-08-19T14:27:43;3.20;;;2.90;;
72864;SDS011;61000;48.120;11.548;2022-08-19T14:30:11;3.50;;;3.20;;
72864;SDS011;61000;48.120;11.548;2022-08-19T14:32:40;3.90;;;3.50;;
72864;SDS011;61000;48.120;11.548;2022-08-19T14:35:08;4.47;;;3.88;;